createdAt,value
2023-05-17T00:00:56.577Z,99453.66
2023-05-17T00:03:23.665Z,99443.16
2023-05-17T00:05:50.801Z,99433.28
2023-05-17T00:08:17.889Z,99420.56
2023-05-17T00:10:45.007Z,99420.56
2023-05-17T00:13:12.104Z,99410.22
2023-05-17T00:15:39.251Z,99395.66
2023-05-17T00:18:06.390Z,99387.09
2023-05-17T00:20:34.678Z,99387.41
2023-05-17T00:23:01.895Z,99385.56
2023-05-17T00:25:29.211Z,99381.22
2023-05-17T00:27:56.647Z,99370.25
2023-05-17T00:30:23.698Z,99364.22
2023-05-17T00:32:50.757Z,99346.50
2023-05-17T00:35:18.955Z,99344.88
2023-05-17T00:37:48.147Z,99332.50
2023-05-17T00:40:18.626Z,99315.09
2023-05-17T00:42:45.831Z,99306.72
2023-05-17T00:45:12.950Z,99298.72
2023-05-17T00:47:40.756Z,99293.09
2023-05-17T00:50:08.148Z,99271.31
2023-05-17T00:52:36.073Z,99264.13
2023-05-17T00:55:03.305Z,99261.34
2023-05-17T00:57:32.071Z,99252.28
2023-05-17T01:00:01.549Z,99245.59
2023-05-17T01:02:29.560Z,99242.44
2023-05-17T01:04:57.428Z,99235.94
2023-05-17T01:07:24.610Z,99234.91
2023-05-17T01:09:51.865Z,99230.03
2023-05-17T01:12:25.344Z,99240.34
2023-05-17T01:15:06.493Z,99239.59
2023-05-17T01:17:36.437Z,99267.53
2023-05-17T01:20:22.482Z,99265.47
2023-05-17T01:22:52.277Z,99262.44
2023-05-17T01:25:37.920Z,99278.22
2023-05-17T01:28:06.210Z,99263.69
2023-05-17T01:30:34.146Z,99288.75
2023-05-17T01:33:02.762Z,99283.34
2023-05-17T01:35:30.121Z,99291.03
2023-05-17T01:37:57.261Z,99300.34
2023-05-17T01:40:24.551Z,99317.88
2023-05-17T01:42:57.680Z,99316.28
2023-05-17T01:45:28.157Z,99320.25
2023-05-17T01:48:14.195Z,99345.69
2023-05-17T01:50:41.989Z,99325.28
2023-05-17T01:53:18.956Z,99349.59
2023-05-17T01:55:54.206Z,99346.63
2023-05-17T01:58:25.959Z,99343.50
2023-05-17T02:00:55.586Z,99365.28
2023-05-17T02:03:22.856Z,99365.13
2023-05-17T02:05:53.080Z,99365.06
2023-05-17T02:08:20.176Z,99367.94
2023-05-17T02:10:47.275Z,99382.94
2023-05-17T02:13:14.360Z,99389.41
2023-05-17T02:15:41.428Z,99385.38
2023-05-17T02:18:08.629Z,99399.41
2023-05-17T02:20:36.811Z,99411.03
2023-05-17T02:23:03.870Z,99407.59
2023-05-17T02:25:31.537Z,99428.88
2023-05-17T02:27:59.569Z,99423.72
2023-05-17T02:30:28.163Z,99432.88
2023-05-17T02:32:56.737Z,99449.38
2023-05-17T02:35:23.974Z,99462.56
2023-05-17T02:37:52.028Z,99457.53
2023-05-17T02:40:19.751Z,99445.53
2023-05-17T02:42:46.854Z,99462.22
2023-05-17T02:45:13.975Z,99473.25
2023-05-17T02:47:41.234Z,99492.63
2023-05-17T02:50:08.875Z,99474.97
2023-05-17T02:52:36.087Z,99474.72
2023-05-17T02:57:44.592Z,99472.53
2023-05-17T03:00:11.957Z,99491.34
2023-05-17T03:02:39.199Z,99507.88
2023-05-17T03:05:06.937Z,99505.91
2023-05-17T03:07:34.021Z,99529.47
2023-05-17T03:10:01.211Z,99547.09
2023-05-17T03:12:33.158Z,99519.09
2023-05-17T03:15:00.355Z,99542.09
2023-05-17T03:17:27.771Z,99550.91
2023-05-17T03:19:55.691Z,99556.69
2023-05-17T03:22:22.954Z,99580.06
2023-05-17T03:24:50.055Z,99589.75
2023-05-17T03:27:17.178Z,99594.66
2023-05-17T03:29:44.818Z,99568.72
2023-05-17T03:32:11.933Z,99604.88
2023-05-17T03:34:38.968Z,99610.91
2023-05-17T03:37:06.233Z,99603.88
2023-05-17T03:39:33.338Z,99609.34
2023-05-17T03:42:00.468Z,99607.25
2023-05-17T03:44:28.598Z,99623.38
2023-05-17T03:46:55.824Z,99641.56
2023-05-17T03:49:24.152Z,99652.38
2023-05-17T03:51:52.059Z,99653.06
2023-05-17T03:54:19.156Z,99676.19
2023-05-17T03:56:48.910Z,99688.63
2023-05-17T03:59:16.876Z,99686.22
2023-05-17T04:01:45.510Z,99704.44
2023-05-17T04:04:14.136Z,99714.97
2023-05-17T04:06:41.862Z,99720.72
2023-05-17T04:09:10.952Z,99735.38
2023-05-17T04:11:40.810Z,99747.69
2023-05-17T04:14:08.154Z,99761.72
2023-05-17T04:16:35.237Z,99796.41
2023-05-17T04:19:02.523Z,99786.41
2023-05-17T04:21:31.182Z,99792.28
2023-05-17T04:23:58.244Z,99811.41
2023-05-17T04:26:26.809Z,99823.19
2023-05-17T04:28:53.939Z,99837.06
2023-05-17T04:31:22.682Z,99846.47
2023-05-17T04:33:50.708Z,99859.38
2023-05-17T04:36:18.536Z,99879.31
2023-05-17T04:38:46.386Z,99899.03
2023-05-17T04:41:16.306Z,99936.97
2023-05-17T04:43:43.892Z,99959.38
2023-05-17T04:46:18.873Z,100011.28
2023-05-17T04:48:47.168Z,100064.25
2023-05-17T04:51:14.679Z,100117.63
2023-05-17T04:53:42.071Z,100151.63
2023-05-17T04:56:13.954Z,100104.81
2023-05-17T04:58:41.604Z,100079.72
2023-05-17T05:01:09.313Z,99972.31
2023-05-17T05:03:36.848Z,99876.88
2023-05-17T05:06:06.114Z,99703.28
2023-05-17T05:08:33.866Z,99540.75
2023-05-17T05:11:01.341Z,99450.69
2023-05-17T05:13:29.671Z,99403.84
2023-05-17T05:15:56.785Z,99418.44
2023-05-17T05:18:24.805Z,99379.63
2023-05-17T05:20:52.067Z,99386.34
2023-05-17T05:23:19.463Z,99443.22
2023-05-17T05:25:48.828Z,99460.00
2023-05-17T05:28:16.124Z,99412.25
2023-05-17T05:30:43.972Z,99433.66
2023-05-17T05:33:12.385Z,99412.34
2023-05-17T05:35:39.523Z,99393.38
2023-05-17T05:38:07.724Z,99348.19
2023-05-17T05:40:36.344Z,99354.44
2023-05-17T05:43:03.711Z,99366.25
2023-05-17T05:45:31.989Z,99368.13
2023-05-17T05:48:04.231Z,99421.31
2023-05-17T05:50:31.712Z,99372.94
2023-05-17T05:53:17.383Z,99345.16
2023-05-17T05:55:49.550Z,99260.84
2023-05-17T05:58:16.837Z,99251.63
2023-05-17T06:00:45.096Z,99108.91
2023-05-17T06:03:12.171Z,99142.84
2023-05-17T06:05:40.533Z,99072.03
2023-05-17T06:08:07.923Z,99040.31
2023-05-17T06:10:34.991Z,98953.22
2023-05-17T06:13:02.033Z,98898.09
2023-05-17T06:15:31.227Z,98889.59
2023-05-17T06:17:58.443Z,98881.88
2023-05-17T06:20:25.826Z,98770.75
2023-05-17T06:22:52.935Z,98739.88
2023-05-17T06:25:20.187Z,98754.47
2023-05-17T06:27:47.269Z,98639.16
2023-05-17T06:30:14.617Z,98654.28
2023-05-17T06:32:41.937Z,98460.38
2023-05-17T06:35:09.377Z,98362.88
2023-05-17T06:37:36.436Z,98425.19
2023-05-17T06:40:14.865Z,98318.34
2023-05-17T06:42:42.375Z,98197.00
2023-05-17T06:45:09.868Z,98050.44
2023-05-17T06:47:37.144Z,98008.19
2023-05-17T06:50:04.517Z,97954.66
2023-05-17T06:52:31.644Z,97851.69
2023-05-17T06:54:58.777Z,97770.19
2023-05-17T06:57:25.894Z,97828.28
2023-05-17T06:59:53.006Z,97775.00
2023-05-17T07:02:20.177Z,97659.97
2023-05-17T07:04:47.292Z,97557.44
2023-05-17T07:07:14.413Z,97599.47
2023-05-17T07:09:41.550Z,97654.06
2023-05-17T07:12:08.762Z,97619.66
2023-05-17T07:14:36.268Z,97668.09
2023-05-17T07:17:03.427Z,97558.84
2023-05-17T07:19:30.871Z,97495.94
2023-05-17T07:21:58.126Z,97459.91
2023-05-17T07:24:25.302Z,97415.66
2023-05-17T07:26:52.811Z,97518.63
2023-05-17T07:29:20.015Z,97369.94
2023-05-17T07:31:47.248Z,97364.50
2023-05-17T07:34:14.539Z,97129.38
2023-05-17T07:36:41.703Z,97320.31
2023-05-17T07:39:09.216Z,97277.72
2023-05-17T07:41:36.561Z,97383.59
2023-05-17T07:44:03.622Z,97337.16
2023-05-17T07:46:30.711Z,97371.97
2023-05-17T07:49:00.765Z,97363.22
2023-05-17T07:51:27.994Z,97485.19
2023-05-17T07:53:55.117Z,97469.03
2023-05-17T07:56:23.275Z,97438.59
2023-05-17T07:58:51.194Z,97462.00
2023-05-17T08:01:18.271Z,97490.59
2023-05-17T08:03:48.318Z,97444.66
2023-05-17T08:06:16.615Z,97452.03
2023-05-17T08:08:44.148Z,97525.72
2023-05-17T08:11:11.949Z,97464.22
2023-05-17T08:13:39.073Z,97425.84
2023-05-17T08:16:13.721Z,97485.75
2023-05-17T08:18:45.045Z,97408.91
2023-05-17T08:21:12.320Z,97421.53
2023-05-17T08:23:40.840Z,97340.44
2023-05-17T08:26:07.995Z,97376.78
2023-05-17T08:28:35.154Z,97279.69
2023-05-17T08:31:04.047Z,97263.78
2023-05-17T08:33:31.273Z,97254.66
2023-05-17T08:36:03.975Z,97278.53
2023-05-17T08:38:31.069Z,97210.59
2023-05-17T08:40:59.859Z,97261.34
2023-05-17T08:43:28.057Z,97300.28
2023-05-17T08:45:57.951Z,97303.16
2023-05-17T08:48:31.186Z,97355.13
2023-05-17T08:51:00.034Z,97326.94
2023-05-17T08:53:27.313Z,97414.97
2023-05-17T08:55:58.261Z,97386.59
2023-05-17T08:58:26.924Z,97414.41
2023-05-17T09:00:54.455Z,97422.53
2023-05-17T09:03:22.570Z,97479.66
2023-05-17T09:05:53.657Z,97516.16
2023-05-17T09:08:21.699Z,97586.56
2023-05-17T09:10:49.280Z,97543.75
2023-05-17T09:13:16.709Z,97586.66
2023-05-17T09:15:44.674Z,97542.41
2023-05-17T09:18:17.021Z,97623.06
2023-05-17T09:20:50.512Z,97606.88
2023-05-17T09:23:20.513Z,97612.38
2023-05-17T09:25:48.442Z,97613.44
2023-05-17T09:28:18.137Z,97517.22
2023-05-17T09:30:48.106Z,97505.94
2023-05-17T09:33:17.730Z,97448.94
2023-05-17T09:35:46.088Z,97309.41
2023-05-17T09:38:13.758Z,97268.97
2023-05-17T09:40:42.107Z,97250.63
2023-05-17T09:43:09.968Z,97179.63
2023-05-17T09:45:37.398Z,97179.16
2023-05-17T09:48:15.383Z,97179.44
2023-05-17T09:50:49.983Z,97043.75
2023-05-17T09:53:23.901Z,97140.44
2023-05-17T09:55:52.750Z,97243.72
2023-05-17T09:58:19.825Z,97236.41
2023-05-17T10:00:51.728Z,97124.88
2023-05-17T10:03:19.129Z,97192.97
2023-05-17T10:05:47.258Z,97149.19
2023-05-17T10:08:14.928Z,97124.97
2023-05-17T10:10:42.540Z,97045.97
2023-05-17T10:13:11.356Z,97070.69
2023-05-17T10:15:39.639Z,97092.53
2023-05-17T10:18:07.876Z,97054.63
2023-05-17T10:20:35.801Z,97021.09
2023-05-17T10:23:05.320Z,96943.19
2023-05-17T10:25:32.734Z,96963.75
2023-05-17T10:28:01.414Z,96987.22
2023-05-17T10:30:28.787Z,96947.00
2023-05-17T10:32:56.794Z,96915.91
2023-05-17T10:35:24.278Z,96901.66
2023-05-17T10:37:51.469Z,96776.09
2023-05-17T10:40:20.128Z,96711.19
2023-05-17T10:42:50.905Z,96786.66
2023-05-17T10:45:20.747Z,96743.72
2023-05-17T10:47:50.834Z,96754.31
2023-05-17T10:50:27.321Z,96812.16
2023-05-17T10:52:56.343Z,96827.34
2023-05-17T10:55:28.489Z,96815.66
2023-05-17T10:58:16.176Z,96783.72
2023-05-17T11:00:48.457Z,96754.41
2023-05-17T11:03:22.739Z,96803.47
2023-05-17T11:06:12.703Z,96761.03
2023-05-17T11:08:49.632Z,96724.78
2023-05-17T11:11:18.205Z,96700.56
2023-05-17T11:13:52.421Z,96585.16
2023-05-17T11:16:25.564Z,96553.41
2023-05-17T11:18:54.359Z,96573.34
2023-05-17T11:21:22.408Z,96495.69
2023-05-17T11:23:58.787Z,96522.28
2023-05-17T11:26:33.018Z,96594.53
2023-05-17T11:29:01.636Z,96613.47
2023-05-17T11:31:32.535Z,96559.56
2023-05-17T11:34:00.904Z,96550.16
2023-05-17T11:36:28.022Z,96501.38
2023-05-17T11:39:14.855Z,96454.03
2023-05-17T11:42:08.080Z,96481.00
2023-05-17T11:44:39.097Z,96476.59
2023-05-17T11:47:09.768Z,96480.19
2023-05-17T11:49:37.928Z,96543.47
2023-05-17T11:52:06.148Z,96534.81
2023-05-17T11:54:33.502Z,96511.06
2023-05-17T11:57:02.760Z,96538.66
2023-05-17T11:59:37.149Z,96500.84
2023-05-17T12:02:04.323Z,96562.78
2023-05-17T12:04:34.929Z,96566.81
2023-05-17T12:07:02.141Z,96549.25
2023-05-17T12:09:29.261Z,96579.66
2023-05-17T12:11:57.159Z,96649.28
2023-05-17T12:14:24.723Z,96593.09
2023-05-17T12:16:53.346Z,96698.38
2023-05-17T12:19:22.235Z,96666.56
2023-05-17T12:21:49.896Z,96673.31
2023-05-17T12:24:17.676Z,96701.84
2023-05-17T12:26:48.157Z,96684.53
2023-05-17T12:29:19.272Z,96769.44
2023-05-17T12:31:50.828Z,96812.38
2023-05-17T12:34:18.468Z,96770.78
2023-05-17T12:36:45.794Z,96778.19
2023-05-17T12:39:13.774Z,96787.38
2023-05-17T12:41:41.139Z,96778.63
2023-05-17T12:44:15.151Z,96745.41
2023-05-17T12:46:43.985Z,96815.91
2023-05-17T12:49:12.049Z,96769.66
2023-05-17T12:51:43.567Z,96724.69
2023-05-17T12:54:13.345Z,96771.63
2023-05-17T12:56:44.537Z,96724.94
2023-05-17T12:59:14.554Z,96736.44
2023-05-17T13:01:51.686Z,96788.44
2023-05-17T13:04:19.404Z,96755.91
2023-05-17T13:06:49.552Z,96775.56
2023-05-17T13:09:18.565Z,96791.94
2023-05-17T13:11:52.650Z,96801.75
2023-05-17T13:14:38.754Z,96834.78
2023-05-17T13:17:07.212Z,96849.22
2023-05-17T13:19:36.101Z,96813.50
2023-05-17T13:22:03.767Z,96919.03
2023-05-17T13:24:31.219Z,96923.94
2023-05-17T13:26:58.385Z,96949.81
2023-05-17T13:29:38.030Z,96945.75
2023-05-17T13:32:07.768Z,97077.56
2023-05-17T13:34:35.052Z,97123.53
2023-05-17T13:37:02.182Z,97191.09
2023-05-17T13:39:29.409Z,97276.16
2023-05-17T13:41:56.627Z,97328.47
